createdAt,value
2023-08-14T00:03:27.856Z,101610.97
2023-08-14T00:08:31.049Z,101610.13
2023-08-14T00:13:50.962Z,101594.97
2023-08-14T00:18:55.617Z,101590.41
2023-08-14T00:23:58.828Z,101599.16
2023-08-14T00:29:01.844Z,101592.81
2023-08-14T00:34:06.689Z,101592.78
2023-08-14T00:39:09.881Z,101588.22
2023-08-14T00:44:12.965Z,101584.66
2023-08-14T00:49:18.091Z,101582.16
2023-08-14T00:54:21.243Z,101571.53
2023-08-14T00:59:24.508Z,101577.78
2023-08-14T01:04:29.075Z,101576.84
2023-08-14T01:09:32.483Z,101574.16
2023-08-14T01:14:36.696Z,101570.59
2023-08-14T01:19:43.805Z,101562.50
2023-08-14T01:24:55.333Z,101558.81
2023-08-14T01:30:01.061Z,101555.22
2023-08-14T01:35:04.876Z,101554.31
2023-08-14T01:40:13.972Z,101543.63
2023-08-14T01:45:21.662Z,101538.19
2023-08-14T01:50:28.127Z,101531.97
2023-08-14T01:55:31.331Z,101516.88
2023-08-14T02:00:35.963Z,101521.34
2023-08-14T02:05:39.230Z,101518.63
2023-08-14T02:10:42.357Z,101515.97
2023-08-14T02:15:48.690Z,101507.94
2023-08-14T02:20:52.040Z,101493.69
2023-08-14T02:25:56.942Z,101501.63
2023-08-14T02:31:04.205Z,101492.66
2023-08-14T02:36:07.613Z,101499.72
2023-08-14T02:41:10.718Z,101501.34
2023-08-14T02:46:17.321Z,101495.94
2023-08-14T02:51:20.322Z,101503.84
2023-08-14T02:56:23.894Z,101507.25
2023-08-14T03:01:28.486Z,101506.28
2023-08-14T03:06:33.648Z,101500.88
2023-08-14T03:11:36.703Z,101508.75
2023-08-14T03:16:41.253Z,101501.59
2023-08-14T03:21:44.380Z,101510.38
2023-08-14T03:26:48.279Z,101500.56
2023-08-14T03:31:53.137Z,101504.00
2023-08-14T03:37:00.019Z,101503.88
2023-08-14T03:42:03.348Z,101497.59
2023-08-14T03:47:08.373Z,101494.00
2023-08-14T03:52:12.556Z,101500.88
2023-08-14T03:57:16.851Z,101507.94
2023-08-14T04:02:22.891Z,101507.94
2023-08-14T04:07:25.918Z,101514.22
2023-08-14T04:12:29.005Z,101508.00
2023-08-14T04:17:34.130Z,101492.78
2023-08-14T04:22:39.691Z,101499.06
2023-08-14T04:27:42.775Z,101498.16
2023-08-14T04:32:47.476Z,101481.31
2023-08-14T04:37:50.817Z,101482.31
2023-08-14T04:42:54.142Z,101485.16
2023-08-14T04:47:59.411Z,101476.50
2023-08-14T04:53:04.660Z,101469.56
2023-08-14T04:58:09.841Z,101452.94
2023-08-14T05:03:14.860Z,101438.97
2023-08-14T05:08:17.944Z,101446.31
2023-08-14T05:13:21.479Z,101448.31
2023-08-14T05:18:26.518Z,101447.63
2023-08-14T05:23:29.994Z,101458.50
2023-08-14T05:28:33.189Z,101453.38
2023-08-14T05:33:38.396Z,101461.56
2023-08-14T05:38:41.508Z,101425.06
2023-08-14T05:43:45.010Z,101465.41
2023-08-14T05:48:49.573Z,101478.81
2023-08-14T05:53:52.735Z,101477.97
2023-08-14T05:58:59.261Z,101476.44
2023-08-14T06:04:03.940Z,101479.34
2023-08-14T06:09:07.823Z,101488.50
2023-08-14T06:14:10.957Z,101479.72
2023-08-14T06:19:15.552Z,101498.47
2023-08-14T06:24:18.699Z,101504.75
2023-08-14T06:29:21.797Z,101488.06
2023-08-14T06:34:26.432Z,101482.88
2023-08-14T06:39:29.716Z,101460.84
2023-08-14T06:44:32.836Z,101479.78
2023-08-14T06:49:39.936Z,101474.56
2023-08-14T06:54:43.026Z,101479.91
2023-08-14T06:59:46.871Z,101488.78
2023-08-14T07:04:51.489Z,101481.59
2023-08-14T07:09:54.603Z,101486.91
2023-08-14T07:14:57.750Z,101460.38
2023-08-14T07:20:02.402Z,101483.94
2023-08-14T07:25:06.965Z,101475.31
2023-08-14T07:30:12.001Z,101497.69
2023-08-14T07:35:16.740Z,101492.38
2023-08-14T07:40:19.867Z,101498.53
2023-08-14T07:45:23.022Z,101497.66
2023-08-14T07:50:27.600Z,101488.88
2023-08-14T07:55:30.934Z,101468.63
2023-08-14T08:00:34.108Z,101460.75
2023-08-14T08:05:38.871Z,101447.53
2023-08-14T08:10:42.075Z,101454.72
2023-08-14T08:15:45.422Z,101445.81
2023-08-14T08:25:52.823Z,101437.56
2023-08-14T08:30:56.119Z,101440.09
2023-08-14T08:36:00.702Z,101427.28
2023-08-14T08:41:09.510Z,101435.00
2023-08-14T08:46:14.487Z,101430.94
2023-08-14T08:51:20.058Z,101431.56
2023-08-14T08:56:24.001Z,101437.44
2023-08-14T09:01:27.810Z,101444.06
2023-08-14T09:06:32.497Z,101439.84
2023-08-14T09:11:36.014Z,101436.72
2023-08-14T09:16:39.324Z,101440.47
2023-08-14T09:21:46.114Z,101434.59
2023-08-14T09:26:58.493Z,101429.53
2023-08-14T09:32:05.655Z,101434.34
2023-08-14T09:37:12.682Z,101429.41
2023-08-14T09:42:16.021Z,101417.94
2023-08-14T09:47:19.583Z,101406.09
2023-08-14T09:52:25.871Z,101399.41
2023-08-14T09:57:29.682Z,101402.63
2023-08-14T10:02:34.754Z,101399.66
2023-08-14T10:07:41.255Z,101384.72
2023-08-14T10:12:52.180Z,101389.69
2023-08-14T10:17:58.920Z,101390.72
2023-08-14T10:23:04.454Z,101374.09
2023-08-14T10:28:08.816Z,101374.28
2023-08-14T10:33:12.713Z,101383.13
2023-08-14T10:38:18.951Z,101367.69
2023-08-14T10:43:30.665Z,101367.00
2023-08-14T10:48:37.441Z,101371.81
2023-08-14T10:53:42.989Z,101368.28
2023-08-14T10:58:55.244Z,101360.06
2023-08-14T11:04:00.530Z,101372.41
2023-08-14T11:09:06.369Z,101369.72
2023-08-14T11:14:10.645Z,101341.28
2023-08-14T11:19:15.849Z,101353.22
2023-08-14T11:24:20.413Z,101356.75
2023-08-14T11:29:23.635Z,101340.34
2023-08-14T11:34:27.343Z,101325.63
2023-08-14T11:39:32.382Z,101344.59
2023-08-14T11:44:35.553Z,101334.75
2023-08-14T11:49:39.826Z,101342.13
2023-08-14T11:54:46.123Z,101345.38
2023-08-14T11:59:49.632Z,101336.22
2023-08-14T12:04:54.404Z,101330.88
2023-08-14T12:09:59.678Z,101322.31
2023-08-14T12:15:04.635Z,101323.31
2023-08-14T12:20:11.693Z,101328.78
2023-08-14T12:25:20.831Z,101318.75
2023-08-14T12:30:24.028Z,101325.34
2023-08-14T12:35:27.439Z,101312.31
2023-08-14T12:40:33.349Z,101316.88
2023-08-14T12:45:36.580Z,101316.25
2023-08-14T12:50:39.732Z,101321.47
2023-08-14T12:55:44.657Z,101313.28
2023-08-14T13:00:47.730Z,101309.44
2023-08-14T13:05:50.964Z,101301.50
2023-08-14T13:10:55.491Z,101299.78
2023-08-14T13:15:59.524Z,101280.97
2023-08-14T13:21:02.689Z,101272.69
2023-08-14T13:26:07.227Z,101265.44
2023-08-14T13:31:10.675Z,101262.19
2023-08-14T13:36:13.904Z,101257.19
2023-08-14T13:41:18.574Z,101255.28
2023-08-14T13:46:21.755Z,101238.03
2023-08-14T13:51:24.877Z,101234.63
2023-08-14T13:56:29.600Z,101235.44
2023-08-14T14:01:32.728Z,101229.16
2023-08-14T14:06:35.979Z,101203.63
2023-08-14T14:11:40.661Z,101208.66
2023-08-14T14:16:56.858Z,101223.91
2023-08-14T14:22:01.411Z,101227.41
2023-08-14T14:27:06.390Z,101227.78
2023-08-14T14:32:09.607Z,101208.13
2023-08-14T14:37:12.762Z,101195.41
2023-08-14T14:42:18.657Z,101202.88
2023-08-14T14:47:22.040Z,101203.19
2023-08-14T14:52:25.673Z,101192.47
2023-08-14T14:57:30.533Z,101206.34
2023-08-14T15:02:33.687Z,101204.00
2023-08-14T15:07:36.865Z,101194.88
2023-08-14T15:12:41.547Z,101194.81
2023-08-14T15:17:45.229Z,101197.75
2023-08-14T15:22:49.225Z,101191.00
2023-08-14T15:27:53.667Z,101190.25
2023-08-14T15:32:56.747Z,101198.16
2023-08-14T15:38:00.125Z,101197.69
2023-08-14T15:43:04.703Z,101192.75
2023-08-14T15:48:08.052Z,101188.97
2023-08-14T15:53:11.236Z,101191.84
2023-08-14T15:58:15.950Z,101193.91
2023-08-14T16:03:19.117Z,101196.63
2023-08-14T16:08:22.345Z,101202.22
2023-08-14T16:13:26.810Z,101200.22
2023-08-14T16:18:29.979Z,101203.09
2023-08-14T16:23:33.123Z,101204.09
2023-08-14T16:28:37.653Z,101203.25
2023-08-14T16:33:40.649Z,101200.47
2023-08-14T16:38:43.905Z,101200.13
2023-08-14T16:43:48.511Z,101205.78
2023-08-14T16:48:51.633Z,101200.88
2023-08-14T16:53:55.237Z,101188.28
2023-08-14T16:58:59.881Z,101194.88
2023-08-14T17:04:04.251Z,101193.38
2023-08-14T17:09:09.634Z,101197.88
2023-08-14T17:14:17.137Z,101193.75
2023-08-14T17:19:20.451Z,101185.88
2023-08-14T17:24:23.562Z,101189.63
2023-08-14T17:29:28.129Z,101191.84
2023-08-14T17:34:31.221Z,101192.25
2023-08-14T17:39:34.384Z,101187.25
2023-08-14T17:44:39.182Z,101187.31
2023-08-14T17:49:42.409Z,101192.41
2023-08-14T17:54:47.145Z,101173.75
2023-08-14T17:59:51.748Z,101174.16
2023-08-14T18:04:54.942Z,101168.41
2023-08-14T18:09:58.001Z,101172.34
2023-08-14T18:15:02.399Z,101177.22
2023-08-14T18:20:06.738Z,101170.53
2023-08-14T18:25:32.377Z,101174.47
2023-08-14T18:30:36.856Z,101180.19
2023-08-14T18:35:40.065Z,101183.84
2023-08-14T18:40:46.152Z,101192.69
2023-08-14T18:45:52.098Z,101197.16
2023-08-14T18:50:57.083Z,101202.53
2023-08-14T18:56:00.934Z,101193.47
2023-08-14T19:01:05.385Z,101199.59
2023-08-14T19:06:08.652Z,101203.81
2023-08-14T19:11:11.880Z,101200.88
2023-08-14T19:16:16.680Z,101201.56
2023-08-14T19:21:19.716Z,101202.19
2023-08-14T19:26:27.677Z,101213.44
2023-08-14T19:31:32.834Z,101210.47
2023-08-14T19:36:35.888Z,101202.13
2023-08-14T19:41:38.973Z,101228.44
2023-08-14T19:46:43.424Z,101220.72
2023-08-14T19:51:46.401Z,101228.19
2023-08-14T19:56:49.523Z,101233.81
2023-08-14T20:01:54.110Z,101234.03
2023-08-14T20:06:57.134Z,101236.00
2023-08-14T20:12:00.209Z,101232.53
2023-08-14T20:17:04.593Z,101238.09
2023-08-14T20:22:07.609Z,101234.78
2023-08-14T20:27:10.630Z,101222.44
2023-08-14T20:32:15.174Z,101227.09
2023-08-14T20:37:18.544Z,101218.25
2023-08-14T20:42:21.909Z,101209.44
2023-08-14T20:47:26.554Z,101205.06
2023-08-14T20:52:29.703Z,101206.09
2023-08-14T20:57:32.818Z,101199.16
2023-08-14T21:02:37.499Z,101208.13
2023-08-14T21:07:40.734Z,101213.59
2023-08-14T21:12:43.755Z,101208.34
2023-08-14T21:17:49.565Z,101214.69
2023-08-14T21:22:52.836Z,101207.63
2023-08-14T21:27:55.932Z,101209.59
2023-08-14T21:33:00.371Z,101198.97
2023-08-14T21:38:04.264Z,101195.50
2023-08-14T21:43:07.681Z,101199.13
2023-08-14T21:48:12.352Z,101209.84
2023-08-14T21:53:15.603Z,101203.59
2023-08-14T21:58:19.043Z,101206.28
2023-08-14T22:03:23.549Z,101201.78
2023-08-14T22:08:26.730Z,101211.63
2023-08-14T22:13:29.903Z,101241.09
2023-08-14T22:18:34.709Z,101225.19
2023-08-14T22:23:37.952Z,101227.84
2023-08-14T22:28:41.328Z,101236.81
2023-08-14T22:33:46.424Z,101237.78
2023-08-14T22:38:49.442Z,101240.50
2023-08-14T22:43:52.470Z,101230.75
2023-08-14T22:48:56.842Z,101242.34
2023-08-14T22:54:01.426Z,101243.34
2023-08-14T22:59:04.742Z,101247.81
2023-08-14T23:04:09.302Z,101246.94
2023-08-14T23:09:12.529Z,101246.06
2023-08-14T23:14:16.337Z,101230.00
2023-08-14T23:19:20.800Z,101249.63
2023-08-14T23:24:23.844Z,101239.84
2023-08-14T23:29:27.164Z,101232.75
2023-08-14T23:34:31.639Z,101231.88
2023-08-14T23:39:34.665Z,101228.34
2023-08-14T23:44:37.767Z,101222.09
2023-08-14T23:49:46.357Z,101221.22
2023-08-14T23:54:49.434Z,101222.16
2023-08-14T23:59:52.824Z,101229.28
